createdAt,value
2022-08-24T00:01:55.434Z,17.20
2022-08-24T00:04:23.410Z,17.30
2022-08-24T00:06:53.484Z,17.20
2022-08-24T00:09:21.395Z,17.10
2022-08-24T00:11:49.380Z,17.10
2022-08-24T00:14:17.255Z,17.10
2022-08-24T00:16:45.174Z,17.10
2022-08-24T00:19:13.380Z,17.10
2022-08-24T00:21:41.254Z,17.00
2022-08-24T00:24:11.338Z,16.90
2022-08-24T00:26:39.644Z,17.00
2022-08-24T00:29:07.883Z,17.00
2022-08-24T00:31:36.131Z,16.90
2022-08-24T00:34:04.101Z,16.90
2022-08-24T00:36:32.228Z,16.80
2022-08-24T00:39:00.667Z,16.80
2022-08-24T00:41:30.355Z,16.80
2022-08-24T00:44:01.280Z,16.80
2022-08-24T00:46:43.520Z,16.70
2022-08-24T00:49:20.300Z,16.70
2022-08-24T00:51:55.877Z,16.70
2022-08-24T00:54:26.999Z,16.70
2022-08-24T00:57:00.109Z,16.70
2022-08-24T00:59:32.658Z,16.70
2022-08-24T01:02:14.974Z,16.60
2022-08-24T01:04:48.966Z,16.60
2022-08-24T01:07:17.285Z,16.60
2022-08-24T01:09:45.205Z,16.60
2022-08-24T01:12:14.453Z,16.50
2022-08-24T01:14:42.290Z,16.50
2022-08-24T01:17:27.513Z,16.50
2022-08-24T01:19:58.225Z,16.50
2022-08-24T01:22:39.484Z,16.40
2022-08-24T01:25:09.251Z,16.40
2022-08-24T01:27:39.053Z,16.40
2022-08-24T01:30:11.045Z,16.40
2022-08-24T01:32:39.360Z,16.40
2022-08-24T01:35:08.547Z,16.40
2022-08-24T01:37:37.238Z,16.40
2022-08-24T01:40:10.737Z,16.30
2022-08-24T01:42:38.587Z,16.30
2022-08-24T01:45:07.742Z,16.30
2022-08-24T01:47:35.786Z,16.30
2022-08-24T01:50:03.831Z,16.30
2022-08-24T01:52:54.714Z,16.30
2022-08-24T01:55:22.486Z,16.20
2022-08-24T01:57:50.677Z,16.20
2022-08-24T02:00:19.018Z,16.10
2022-08-24T02:02:47.110Z,16.20
2022-08-24T02:05:16.500Z,16.20
2022-08-24T02:07:44.433Z,16.20
2022-08-24T02:10:15.306Z,16.10
2022-08-24T02:12:46.978Z,16.10
2022-08-24T02:15:14.819Z,16.10
2022-08-24T02:17:42.687Z,16.00
2022-08-24T02:20:11.264Z,16.00
2022-08-24T02:22:39.134Z,16.00
2022-08-24T02:25:07.333Z,16.00
2022-08-24T02:27:37.856Z,16.00
2022-08-24T02:30:08.615Z,15.80
2022-08-24T02:32:36.421Z,15.90
2022-08-24T02:35:04.970Z,15.90
2022-08-24T02:37:32.857Z,15.90
2022-08-24T02:40:01.764Z,15.80
2022-08-24T02:42:30.382Z,15.80
2022-08-24T02:44:58.290Z,15.80
2022-08-24T02:47:38.263Z,15.80
2022-08-24T02:50:09.845Z,15.80
2022-08-24T02:52:38.491Z,15.80
2022-08-24T02:55:08.259Z,15.80
2022-08-24T02:57:36.108Z,15.80
2022-08-24T03:00:10.756Z,15.60
2022-08-24T03:02:41.028Z,15.60
2022-08-24T03:05:10.814Z,15.60
2022-08-24T03:07:39.172Z,15.60
2022-08-24T03:10:08.397Z,15.60
2022-08-24T03:12:36.256Z,15.60
2022-08-24T03:15:05.734Z,15.50
2022-08-24T03:17:34.154Z,15.60
2022-08-24T03:20:05.214Z,15.60
2022-08-24T03:22:33.117Z,15.50
2022-08-24T03:25:00.990Z,15.50
2022-08-24T03:27:28.892Z,15.50
2022-08-24T03:29:56.797Z,15.50
2022-08-24T03:32:24.829Z,15.50
2022-08-24T03:34:52.637Z,15.50
2022-08-24T03:37:21.876Z,15.50
2022-08-24T03:39:50.907Z,15.40
2022-08-24T03:42:19.061Z,15.40
2022-08-24T03:44:46.964Z,15.50
2022-08-24T03:47:14.869Z,15.50
2022-08-24T03:49:43.077Z,15.30
2022-08-24T03:52:10.946Z,15.20
2022-08-24T03:54:40.140Z,15.30
2022-08-24T03:57:08.013Z,15.30
2022-08-24T03:59:37.702Z,15.30
2022-08-24T04:02:14.116Z,15.20
2022-08-24T04:04:42.664Z,15.20
2022-08-24T04:07:12.339Z,15.20
2022-08-24T04:09:41.501Z,15.20
2022-08-24T04:12:09.885Z,15.10
2022-08-24T04:14:38.564Z,15.10
2022-08-24T04:17:06.461Z,15.10
2022-08-24T04:19:35.070Z,15.10
2022-08-24T04:22:02.968Z,15.10
2022-08-24T04:24:31.923Z,15.10
2022-08-24T04:27:01.141Z,15.00
2022-08-24T04:29:29.000Z,15.10
2022-08-24T04:31:58.207Z,15.10
2022-08-24T04:34:26.061Z,15.10
2022-08-24T04:36:53.844Z,15.10
2022-08-24T04:39:21.666Z,15.10
2022-08-24T04:41:51.662Z,15.10
2022-08-24T04:44:21.307Z,15.00
2022-08-24T04:46:49.192Z,15.00
2022-08-24T04:49:17.092Z,15.00
2022-08-24T04:51:44.998Z,15.00
2022-08-24T04:54:12.840Z,15.00
2022-08-24T04:56:40.689Z,15.00
2022-08-24T04:59:09.081Z,15.00
2022-08-24T05:01:38.329Z,15.00
2022-08-24T05:04:06.275Z,16.10
2022-08-24T05:06:34.719Z,16.80
2022-08-24T05:09:03.688Z,15.80
2022-08-24T05:11:31.581Z,15.30
2022-08-24T05:14:00.333Z,15.20
2022-08-24T05:16:28.755Z,15.10
2022-08-24T05:19:02.912Z,15.10
2022-08-24T05:21:31.003Z,15.30
2022-08-24T05:23:58.913Z,16.50
2022-08-24T05:26:29.184Z,17.20
2022-08-24T05:28:58.737Z,17.60
2022-08-24T05:31:28.665Z,17.80
2022-08-24T05:33:57.342Z,17.90
2022-08-24T05:36:29.413Z,18.00
2022-08-24T05:39:00.489Z,18.10
2022-08-24T05:41:29.545Z,18.10
2022-08-24T05:43:57.713Z,18.20
2022-08-24T05:46:25.507Z,18.30
2022-08-24T05:48:53.530Z,18.50
2022-08-24T05:51:22.360Z,18.70
2022-08-24T05:53:51.538Z,18.90
2022-08-24T05:56:20.495Z,19.40
2022-08-24T05:58:48.846Z,19.70
2022-08-24T06:01:18.937Z,20.10
2022-08-24T06:03:47.202Z,20.10
2022-08-24T06:06:16.158Z,20.20
2022-08-24T06:08:46.422Z,20.60
2022-08-24T06:11:24.719Z,21.10
2022-08-24T06:14:00.831Z,20.30
2022-08-24T06:16:29.321Z,21.20
2022-08-24T06:18:57.660Z,21.20
2022-08-24T06:21:28.662Z,21.70
2022-08-24T06:23:57.208Z,22.40
2022-08-24T06:26:45.156Z,22.60
2022-08-24T06:29:18.049Z,23.00
2022-08-24T06:31:48.416Z,23.20
2022-08-24T06:34:23.948Z,23.40
2022-08-24T06:36:52.709Z,24.20
2022-08-24T06:39:21.670Z,24.60
2022-08-24T06:41:50.884Z,25.20
2022-08-24T06:44:18.740Z,24.70
2022-08-24T06:46:46.809Z,25.10
2022-08-24T06:49:14.940Z,25.10
2022-08-24T06:51:44.640Z,25.60
2022-08-24T06:54:14.258Z,24.70
2022-08-24T06:56:42.629Z,24.80
2022-08-24T06:59:11.832Z,23.80
2022-08-24T07:01:39.864Z,24.70
2022-08-24T07:04:07.676Z,24.70
2022-08-24T07:06:36.701Z,25.10
2022-08-24T07:09:05.102Z,25.50
2022-08-24T07:11:34.927Z,25.30
2022-08-24T07:14:02.959Z,25.30
2022-08-24T07:16:32.274Z,25.40
2022-08-24T07:19:00.754Z,25.50
2022-08-24T07:21:28.681Z,25.30
2022-08-24T07:23:58.148Z,27.00
2022-08-24T07:26:28.187Z,22.70
2022-08-24T07:29:01.096Z,21.20
2022-08-24T07:31:33.333Z,20.70
2022-08-24T07:34:05.538Z,20.30
2022-08-24T07:36:34.108Z,20.10
2022-08-24T07:39:02.625Z,19.90
2022-08-24T07:41:51.407Z,19.90
2022-08-24T07:44:19.956Z,20.00
2022-08-24T07:46:47.909Z,20.30
2022-08-24T07:49:33.167Z,20.40
2022-08-24T07:52:01.424Z,20.10
2022-08-24T07:54:29.657Z,20.00
2022-08-24T07:56:59.741Z,20.20
2022-08-24T07:59:27.529Z,20.40
2022-08-24T08:01:55.531Z,20.20
2022-08-24T08:04:25.983Z,20.30
2022-08-24T08:09:27.422Z,20.20
2022-08-24T08:11:55.527Z,20.20
2022-08-24T08:14:23.448Z,20.30
2022-08-24T08:16:51.429Z,20.30
2022-08-24T08:19:19.343Z,20.20
2022-08-24T08:22:08.647Z,20.30
2022-08-24T08:24:39.567Z,20.50
2022-08-24T08:27:07.851Z,20.60
2022-08-24T08:29:36.543Z,20.50
2022-08-24T08:32:05.012Z,20.60
2022-08-24T08:34:32.862Z,20.60
2022-08-24T08:37:03.873Z,20.50
2022-08-24T08:39:32.402Z,20.60
2022-08-24T08:42:27.672Z,20.50
2022-08-24T08:45:09.425Z,20.20
2022-08-24T08:50:40.859Z,20.50
2022-08-24T08:53:48.629Z,20.60
2022-08-24T08:56:23.864Z,20.60
2022-08-24T08:59:02.032Z,20.10
2022-08-24T09:01:46.996Z,20.20
2022-08-24T09:04:54.440Z,20.60
2022-08-24T09:07:36.925Z,20.90
2022-08-24T09:10:30.760Z,20.80
2022-08-24T09:13:17.268Z,21.00
2022-08-24T09:15:57.960Z,21.10
2022-08-24T09:18:36.349Z,21.10
2022-08-24T09:21:16.645Z,20.80
2022-08-24T09:23:54.504Z,21.10
2022-08-24T09:26:28.957Z,21.00
2022-08-24T09:29:09.770Z,21.20
2022-08-24T09:31:54.600Z,21.30
2022-08-24T09:34:35.746Z,21.20
2022-08-24T09:37:20.172Z,21.20
2022-08-24T09:40:02.045Z,21.20
2022-08-24T09:43:06.320Z,21.70
2022-08-24T09:45:56.739Z,21.40
2022-08-24T09:48:53.124Z,21.10
2022-08-24T09:51:50.372Z,21.40
2022-08-24T09:55:09.055Z,21.90
2022-08-24T09:58:01.847Z,21.80
2022-08-24T10:00:35.551Z,21.60
2022-08-24T10:03:15.745Z,22.00
2022-08-24T10:06:00.893Z,22.30
2022-08-24T10:08:47.168Z,23.80
2022-08-24T10:11:23.034Z,24.20
2022-08-24T10:14:01.064Z,23.80
2022-08-24T10:16:39.777Z,23.20
2022-08-24T10:19:24.284Z,23.20
2022-08-24T10:21:59.102Z,23.10
2022-08-24T10:24:41.505Z,22.90
2022-08-24T10:27:32.057Z,22.50
2022-08-24T10:30:34.846Z,22.50
2022-08-24T10:33:13.346Z,22.10
2022-08-24T10:36:21.147Z,22.50
2022-08-24T10:39:09.069Z,23.00
2022-08-24T10:42:38.124Z,22.70
2022-08-24T10:45:19.151Z,22.60
2022-08-24T10:48:07.870Z,22.70
2022-08-24T10:50:54.481Z,22.80
2022-08-24T10:53:28.600Z,23.10
2022-08-24T10:56:09.873Z,23.00
2022-08-24T10:58:46.114Z,22.70
2022-08-24T11:01:26.499Z,23.10
2022-08-24T11:03:58.475Z,22.90
2022-08-24T11:06:31.292Z,22.90
2022-08-24T11:09:06.596Z,23.00
2022-08-24T11:11:36.495Z,23.10
2022-08-24T11:14:23.858Z,23.00
2022-08-24T11:16:57.054Z,22.90
2022-08-24T11:19:34.028Z,23.00
2022-08-24T11:22:06.254Z,23.10
2022-08-24T11:24:43.536Z,23.30
2022-08-24T11:27:26.329Z,23.30
2022-08-24T11:30:07.372Z,23.30
2022-08-24T11:32:41.588Z,23.30
2022-08-24T11:35:19.828Z,23.30
2022-08-24T11:37:51.442Z,23.40
2022-08-24T11:40:20.888Z,23.50
2022-08-24T11:43:18.209Z,23.80
2022-08-24T11:45:58.149Z,24.00
2022-08-24T11:48:37.691Z,24.20
2022-08-24T11:51:12.992Z,24.10
2022-08-24T11:53:52.874Z,24.00
2022-08-24T11:56:26.722Z,24.00
2022-08-24T11:59:00.538Z,24.10
2022-08-24T12:01:33.835Z,24.30
2022-08-24T12:04:28.473Z,24.50
2022-08-24T12:07:03.765Z,24.70
2022-08-24T12:09:47.923Z,24.30
2022-08-24T12:12:22.160Z,24.40
2022-08-24T12:15:00.112Z,24.70
2022-08-24T12:17:33.673Z,24.50
2022-08-24T12:20:06.480Z,24.00
2022-08-24T12:22:34.533Z,23.50
2022-08-24T12:25:26.854Z,23.90
2022-08-24T12:27:57.206Z,24.10
2022-08-24T12:30:26.002Z,24.00
2022-08-24T12:32:57.828Z,23.70
2022-08-24T12:35:30.608Z,23.80
2022-08-24T12:38:08.461Z,23.90
2022-08-24T12:40:43.237Z,23.80
2022-08-24T12:43:15.985Z,23.90
2022-08-24T12:45:44.093Z,24.10
2022-08-24T12:48:18.540Z,24.40
2022-08-24T12:51:06.674Z,24.30
2022-08-24T12:53:55.346Z,24.00
2022-08-24T12:56:56.848Z,24.40
2022-08-24T12:59:29.390Z,24.60
2022-08-24T13:02:04.207Z,24.60
2022-08-24T13:04:35.787Z,24.30
2022-08-24T13:07:08.196Z,24.10
2022-08-24T13:09:39.056Z,24.30
2022-08-24T13:12:44.944Z,24.50
2022-08-24T13:15:28.916Z,24.60
2022-08-24T13:18:03.053Z,24.70
2022-08-24T13:20:55.632Z,24.80
2022-08-24T13:23:24.890Z,24.50
2022-08-24T13:25:57.191Z,24.50
2022-08-24T13:28:33.789Z,24.70
2022-08-24T13:31:22.430Z,24.50
2022-08-24T13:33:53.184Z,24.80
2022-08-24T13:36:58.423Z,24.80
2022-08-24T13:39:55.996Z,24.70
2022-08-24T13:42:59.206Z,24.80
2022-08-24T13:45:35.130Z,24.80
2022-08-24T13:48:24.093Z,24.70
2022-08-24T13:51:21.485Z,24.50
2022-08-24T13:54:03.240Z,24.00
2022-08-24T13:56:40.533Z,23.80
2022-08-24T13:59:18.053Z,23.80
2022-08-24T14:02:01.859Z,24.30
2022-08-24T14:04:43.633Z,24.50
2022-08-24T14:07:19.169Z,24.40
2022-08-24T14:10:03.811Z,24.50
2022-08-24T14:12:44.972Z,24.70
2022-08-24T14:15:23.985Z,24.90
2022-08-24T14:18:05.165Z,25.10
2022-08-24T14:20:58.276Z,25.10
2022-08-24T14:23:45.647Z,24.80
2022-08-24T14:26:52.989Z,24.40
2022-08-24T14:29:31.069Z,24.20
2022-08-24T14:32:34.773Z,23.90
2022-08-24T14:35:29.034Z,24.00
2022-08-24T14:38:13.313Z,24.10
2022-08-24T14:41:11.249Z,24.50
2022-08-24T14:44:06.729Z,24.60
2022-08-24T14:46:45.183Z,24.60
2022-08-24T14:49:19.291Z,24.60
2022-08-24T14:52:04.700Z,24.70
2022-08-24T14:54:42.307Z,24.70
2022-08-24T14:57:23.297Z,24.60
2022-08-24T15:00:01.453Z,24.30
2022-08-24T15:02:58.348Z,24.30
2022-08-24T15:05:40.308Z,24.70
2022-08-24T15:08:29.421Z,24.60
2022-08-24T15:11:03.624Z,24.40
2022-08-24T15:13:37.813Z,24.30
2022-08-24T15:16:10.718Z,24.30
2022-08-24T15:18:43.757Z,24.30
2022-08-24T15:21:22.880Z,24.50
2022-08-24T15:24:12.161Z,24.30
2022-08-24T15:26:53.404Z,24.20
2022-08-24T15:29:24.246Z,23.90
2022-08-24T15:32:05.915Z,23.90
2022-08-24T15:34:42.714Z,24.10
2022-08-24T15:37:11.153Z,24.00
2022-08-24T15:39:39.082Z,24.00
2022-08-24T15:42:13.332Z,24.10
2022-08-24T15:44:43.521Z,24.20
2022-08-24T15:47:22.637Z,24.10
2022-08-24T15:49:55.057Z,24.10
2022-08-24T15:52:49.257Z,24.00
2022-08-24T15:55:36.378Z,24.00
2022-08-24T15:58:22.630Z,24.10
2022-08-24T16:01:08.635Z,23.90
2022-08-24T16:03:49.749Z,23.90
2022-08-24T16:06:23.396Z,24.00
2022-08-24T16:09:02.886Z,23.90
2022-08-24T16:11:34.817Z,23.90
2022-08-24T16:14:04.530Z,23.80
2022-08-24T16:16:36.541Z,23.90
2022-08-24T16:19:08.591Z,23.90
2022-08-24T16:21:39.157Z,23.80
2022-08-24T16:24:10.432Z,23.80
2022-08-24T16:26:56.042Z,23.80
2022-08-24T16:29:55.548Z,23.80
2022-08-24T16:32:32.745Z,23.90
2022-08-24T16:35:20.549Z,23.70
2022-08-24T16:37:48.400Z,23.60
2022-08-24T16:40:16.527Z,23.50
2022-08-24T16:42:44.485Z,23.40
2022-08-24T16:45:17.130Z,23.50
2022-08-24T16:47:45.637Z,23.50
2022-08-24T16:50:13.597Z,23.50
2022-08-24T16:52:41.667Z,23.40
2022-08-24T16:55:10.681Z,23.50
2022-08-24T16:57:42.854Z,23.40
2022-08-24T17:00:17.205Z,23.40
2022-08-24T17:02:47.956Z,23.30
2022-08-24T17:05:16.479Z,23.40
2022-08-24T17:07:44.875Z,23.30
2022-08-24T17:10:16.450Z,23.20
2022-08-24T17:12:44.327Z,23.20
2022-08-24T17:15:16.090Z,23.20
2022-08-24T17:17:47.274Z,23.30
2022-08-24T17:20:15.153Z,23.10
2022-08-24T17:22:43.053Z,23.00
2022-08-24T17:25:10.920Z,23.10
2022-08-24T17:27:38.877Z,23.10
2022-08-24T17:30:07.680Z,22.90
2022-08-24T17:32:36.957Z,22.90
2022-08-24T17:35:05.264Z,22.90
2022-08-24T17:37:33.740Z,22.90
2022-08-24T17:40:01.975Z,22.80
2022-08-24T17:45:17.870Z,22.70
2022-08-24T17:47:47.311Z,22.70
2022-08-24T17:50:16.935Z,22.60
2022-08-24T17:52:44.936Z,22.60
2022-08-24T17:55:17.026Z,22.50
2022-08-24T17:57:51.806Z,22.40
2022-08-24T18:00:19.776Z,22.30
2022-08-24T18:02:49.057Z,22.30
2022-08-24T18:05:17.026Z,22.20
2022-08-24T18:07:55.371Z,22.10
2022-08-24T18:10:25.742Z,22.10
2022-08-24T18:12:54.096Z,22.10
2022-08-24T18:15:22.022Z,22.00
2022-08-24T18:18:06.163Z,22.00
2022-08-24T18:20:39.788Z,21.90
2022-08-24T18:23:11.341Z,21.90
2022-08-24T18:25:48.909Z,21.90
2022-08-24T18:28:18.237Z,22.00
2022-08-24T18:30:46.125Z,22.00
2022-08-24T18:33:15.661Z,22.00
2022-08-24T18:35:44.319Z,22.00
2022-08-24T18:38:12.216Z,22.00
2022-08-24T18:40:41.285Z,21.90
2022-08-24T18:43:23.133Z,21.90
2022-08-24T18:45:51.492Z,21.90
2022-08-24T18:48:21.024Z,21.70
2022-08-24T18:50:50.509Z,21.80
2022-08-24T18:53:19.408Z,21.80
2022-08-24T18:55:48.361Z,21.70
2022-08-24T18:58:16.344Z,21.70
2022-08-24T19:00:44.782Z,21.70
2022-08-24T19:03:16.659Z,21.70
2022-08-24T19:05:46.345Z,21.70
2022-08-24T19:08:14.521Z,21.70
2022-08-24T19:10:42.475Z,21.60
2022-08-24T19:13:15.205Z,21.60
2022-08-24T19:15:46.535Z,21.60
2022-08-24T19:18:15.845Z,21.50
2022-08-24T19:20:49.005Z,21.50
2022-08-24T19:23:21.257Z,21.50
2022-08-24T19:25:49.546Z,21.40
2022-08-24T19:28:19.859Z,21.40
2022-08-24T19:30:48.899Z,21.40
2022-08-24T19:33:24.090Z,21.40
2022-08-24T19:35:53.933Z,21.40
2022-08-24T19:38:25.445Z,21.30
2022-08-24T19:40:54.719Z,21.30
2022-08-24T19:43:23.827Z,21.30
2022-08-24T19:46:03.133Z,21.20
2022-08-24T19:48:31.704Z,21.10
2022-08-24T19:51:03.586Z,21.10
2022-08-24T19:53:33.085Z,21.10
2022-08-24T19:56:01.772Z,21.10
2022-08-24T19:58:31.268Z,21.10
2022-08-24T20:01:05.180Z,21.10
2022-08-24T20:03:33.136Z,21.10
2022-08-24T20:06:02.384Z,21.00
2022-08-24T20:08:30.367Z,21.00
2022-08-24T20:11:00.361Z,21.00
2022-08-24T20:13:29.158Z,20.90
2022-08-24T20:15:58.176Z,21.00
2022-08-24T20:18:31.142Z,20.90
2022-08-24T20:20:59.564Z,20.90
2022-08-24T20:23:30.001Z,20.90
2022-08-24T20:25:59.385Z,20.80
2022-08-24T20:28:36.008Z,20.80
2022-08-24T20:31:06.018Z,20.80
2022-08-24T20:33:34.549Z,20.80
2022-08-24T20:36:02.536Z,20.80
2022-08-24T20:38:32.245Z,20.70
2022-08-24T20:41:00.774Z,20.70
2022-08-24T20:43:29.062Z,20.70
2022-08-24T20:45:57.427Z,20.70
2022-08-24T20:48:28.340Z,20.60
2022-08-24T20:50:56.672Z,20.60
2022-08-24T20:53:24.881Z,20.60
2022-08-24T20:55:56.436Z,20.60
2022-08-24T20:58:24.353Z,20.50
2022-08-24T21:00:52.221Z,20.50
2022-08-24T21:03:20.163Z,20.50
2022-08-24T21:05:52.166Z,20.50
2022-08-24T21:08:20.581Z,20.40
2022-08-24T21:10:48.486Z,20.40
2022-08-24T21:13:17.683Z,20.40
2022-08-24T21:15:46.396Z,20.40
2022-08-24T21:18:14.757Z,20.30
2022-08-24T21:20:44.767Z,20.40
2022-08-24T21:23:31.305Z,20.30
2022-08-24T21:26:00.022Z,20.20
2022-08-24T21:28:29.861Z,20.20
2022-08-24T21:30:58.460Z,20.20
2022-08-24T21:33:45.751Z,20.20
2022-08-24T21:36:14.393Z,20.20
2022-08-24T21:38:45.336Z,20.10
2022-08-24T21:41:13.500Z,20.10
2022-08-24T21:43:42.703Z,20.10
2022-08-24T21:46:10.982Z,20.10
2022-08-24T21:48:39.702Z,20.00
2022-08-24T21:51:07.813Z,20.00
2022-08-24T21:53:35.679Z,20.00
2022-08-24T21:56:03.789Z,20.00
2022-08-24T21:58:31.665Z,20.00
2022-08-24T22:01:01.283Z,19.90
2022-08-24T22:03:32.715Z,19.90
2022-08-24T22:06:08.529Z,19.90
2022-08-24T22:08:36.959Z,19.90
2022-08-24T22:11:05.199Z,19.80
2022-08-24T22:13:34.145Z,19.80
2022-08-24T22:16:04.142Z,19.80
2022-08-24T22:18:32.148Z,19.80
2022-08-24T22:21:00.421Z,19.70
2022-08-24T22:23:28.341Z,19.60
2022-08-24T22:25:56.237Z,19.50
2022-08-24T22:28:24.581Z,19.60
2022-08-24T22:30:52.472Z,19.60
2022-08-24T22:33:21.846Z,19.70
2022-08-24T22:35:50.378Z,19.60
2022-08-24T22:38:18.441Z,19.50
2022-08-24T22:40:46.449Z,19.40
2022-08-24T22:43:14.402Z,19.40
2022-08-24T22:45:42.288Z,19.50
2022-08-24T22:48:10.184Z,19.50
2022-08-24T22:50:43.093Z,19.50
2022-08-24T22:53:11.001Z,19.40
2022-08-24T22:55:38.817Z,19.40
2022-08-24T23:01:02.099Z,19.40
2022-08-24T23:03:29.981Z,19.30
2022-08-24T23:05:59.258Z,19.30
2022-08-24T23:08:27.077Z,19.30
2022-08-24T23:10:54.902Z,19.20
2022-08-24T23:13:28.680Z,19.20
2022-08-24T23:15:56.718Z,19.20
2022-08-24T23:18:56.565Z,19.20
2022-08-24T23:21:26.004Z,19.20
2022-08-24T23:23:55.938Z,19.20
2022-08-24T23:26:23.800Z,19.20
2022-08-24T23:28:51.644Z,19.20
2022-08-24T23:31:21.687Z,19.20
2022-08-24T23:33:49.751Z,19.10
2022-08-24T23:36:21.321Z,19.00
2022-08-24T23:38:52.422Z,19.00
2022-08-24T23:41:23.798Z,18.90
2022-08-24T23:43:51.602Z,19.00
2022-08-24T23:46:19.864Z,19.00
2022-08-24T23:48:55.225Z,19.00
2022-08-24T23:51:24.757Z,19.00
2022-08-24T23:53:53.933Z,19.00
2022-08-24T23:56:26.001Z,18.90
2022-08-24T23:58:54.075Z,18.80
